KGIF

Winter Haven's Gilbert Airport

Winter Haven, Florida, USA
METAR KGIF 210353Z AUTO 00000KT 10SM CLR 24/23 A3015 RMK AO2 SLP207 T02440228
Observed Flight Rules
Aug-21 @ 03:53 UTC (18 minutes ago) Visual Flight Rules
Visibility Clouds
10 miles
  • Clear skies
Temperatures Readings
Current 24°C / 75°F
Dewpoint 23°C / 73°F
Humidity 94%
Altimeter 30.15" Hg
Pressure 1020.7 hPa
Elevation 43
METAR KGIF 210353Z AUTO 00000KT 10SM CLR 24/23 A3015 RMK AO2 SLP207 T02440228
Observed Flight Rules
Aug-21 @ 03:53 UTC
(18 minutes ago)
VFR
Clouds
  • Clear skies
Temperature Dewpoint
24°C / 75°F 23°C / 73°F
Humidity Altimeter Pressure
94% 30.15" Hg 1020.7 hPa